• Join FlightAware (Why Join?)
  • Login
  • US Flag 
06:57PM EDT


 

Airport Tracker/Info


-or-


 

Live Flight TrackerFlight Track Log ✈ SWA1046 ✈ 06-May-2013 ✈ KALB - KMCO

Flight Track Log - Related Links

Times and Time Zones

All times are in EDT time to prevent confusion due to time zone crossing. See the SWA1046 flight status page for this flight to view local times or setup timezone preferences in your user account.

Time Position Orientation Groundspeed Altitude Reporting Facility
EDT Latitude Longitude Course Direction KTS MPH feet Rate Location/Type
07:52AM 42.7339 -73.8081 179° South 139 160 1,200  Level Boston Center
07:52AM 42.7214 -73.8078 179° South 149 171 1,800 2,400 Climbing Boston Center
07:53AM 42.7000 -73.8583 240° Southwest 226 260 4,400 2,880 Climbing Boston Center
07:54AM 42.7222 -73.9211 296° West 226 260 7,200 3,000 Climbing Boston Center
07:55AM 42.7483 -73.9950 296° West 247 284 10,000 2,940 Climbing Boston Center
07:56AM 42.7303 -74.0908 256° West 233 268 13,100 3,420 Climbing Boston Center
07:57AM 42.7119 -74.1919 256° West 261 300 16,900 2,580 Climbing Boston Center
07:58AM 42.6469 -74.2211 198° South 239 275 18,300 1,620 Climbing Boston Center
07:59AM 42.5731 -74.1542 146° Southeast 244 281 20,200 2,220 Climbing Boston Center
08:00AM 42.4867 -74.0647 143° Southeast 306 352 22,800 1,860 Climbing Boston Center
08:01AM 42.3983 -73.9722 142° Southeast 361 415 24,000 1,740 Climbing Boston Center
08:02AM 42.3081 -73.8775 142° Southeast 395 455 26,300 2,100 Climbing Boston Center
08:03AM 42.1983 -73.8133 157° South 412 474 28,200 1,980 Climbing Boston Center
08:05AM 42.0822 -73.8506 200° South  Level FlightAware Approximate
08:05AM 41.9472 -73.8917 200° South 437 503 32,300  Level Boston Center
08:07AM 41.6961 -74.0103 199° South 440 506 36,900 1,980 Climbing New York Center
08:08AM 41.5822 -74.0603 198° South 440 506 38,400 1,500 Climbing New York Center
08:09AM 41.4661 -74.1156 200° South 440 506 39,900 780 Climbing New York Center
08:10AM 41.3522 -74.1706 200° South 435 501 40,000  Climbing New York Center
08:12AM 41.2427 -74.2271 201° Southwest  Level FlightAware Approximate
08:12AM 41.1328 -74.2697 201° Southwest 440 506 40,000  Level New York Center
08:13AM 41.0186 -74.3269 201° Southwest 440 506 40,000  Level New York Center
08:14AM 40.9086 -74.3789 200° South 435 501 40,000  Level New York Center
08:15AM 40.7967 -74.4306 199° South 430 495 40,000  Level New York Center
08:16AM 40.6867 -74.4819 200° South 430 495 40,000  Level New York Center
08:18AM 40.5765 -74.5363 198° South  Level FlightAware Approximate
08:18AM 40.4603 -74.5872 198° South 430 495 40,000  Level New York Center
08:21AM 40.2122 -74.7006 199° South 435 501 40,000  Level Washington Center
08:23AM 39.9858 -74.8036 199° South 435 501 40,000  Level Washington Center
08:25AM 39.7594 -74.9086 200° South 435 501 40,000  Level Washington Center
08:27AM 39.5453 -75.0022 199° South 440 506 40,000  Level Washington Center
08:29AM 39.3208 -75.1061 200° South 430 495 40,000  Level Washington Center
08:30AM 39.2064 -75.1550 198° South 425 489 40,000  Level Washington Center
08:31AM 39.0939 -75.2011 198° South 425 489 40,000  Level Washington Center
08:32AM 38.9794 -75.2497 198° South 430 495 40,000  Level Washington Center
08:33AM 38.8650 -75.2958 197° South 430 495 40,000  Level Washington Center
08:34AM 38.7525 -75.3414 198° South 430 495 40,000  Level Washington Center
08:35AM 38.6400 -75.3978 201° Southwest 430 495 40,000  Level Washington Center
08:37AM 38.4253 -75.5281 205° Southwest 436 502 40,000  Level Washington Center
08:38AM 38.3169 -75.5944 206° Southwest 436 502 40,000  Level Washington Center
08:39AM 38.2086 -75.6578 205° Southwest 436 502 40,000  Level Washington Center
08:40AM 38.1042 -75.7236 206° Southwest 436 502 40,000  Level Washington Center
08:41AM 37.9875 -75.8000 207° Southwest 431 496 40,000  Level Washington Center
08:43AM 37.7927 -75.9118 204° Southwest  Level FlightAware Approximate
08:44AM 37.6761 -75.9881 204° Southwest 421 484 40,000  Level Washington Center
08:45AM 37.5694 -76.0450 203° Southwest 421 484 40,000  Level Washington Center
08:46AM 37.4650 -76.1100 206° Southwest 421 484 40,000  Level Washington Center
08:47AM 37.3689 -76.1617 203° Southwest 421 484 40,000  Level Washington Center
08:48AM 37.2664 -76.2233 206° Southwest 421 484 40,000  Level Washington Center
08:49AM 37.1639 -76.2850 206° Southwest 421 484 40,000  Level Washington Center
08:51AM 36.9586 -76.4028 205° Southwest 415 478 40,000  Level Washington Center
08:52AM 36.8558 -76.4642 206° Southwest 410 472 40,000  Level Washington Center
08:54AM 36.6319 -76.5678 200° South 405 466 40,000  Level Washington Center
08:55AM 36.5231 -76.6103 197° South 410 472 40,000  Level Washington Center
08:56AM 36.4122 -76.6578 199° South 415 478 40,000  Level Washington Center
08:57AM 36.3033 -76.7003 197° South 415 478 40,000  Level Washington Center
08:58AM 36.1922 -76.7475 199° South 420 483 40,000  Level Washington Center
08:59AM 36.0884 -76.7840 196° South  Level FlightAware Approximate
09:01AM 35.8653 -76.8814 198° South 425 489 40,000  Level Washington Center
09:02AM 35.7564 -76.9231 197° South 425 489 40,000  Level Washington Center
09:04AM 35.5513 -76.9980 197° South  Level FlightAware Approximate
09:05AM 35.4333 -77.0603 197° South 409 471 40,000  Level Washington Center
09:06AM 35.3697 -77.0697 198° South  Level FlightAware Approximate
09:06AM 35.3286 -77.1044 199° South 409 471 40,000  Level Washington Center
09:08AM 35.1249 -77.1845 198° South  Level FlightAware Approximate
09:09AM 35.0056 -77.2378 198° South 409 471 40,000  Level Washington Center
09:10AM 34.8964 -77.2786 197° South 409 471 40,000  Level Washington Center
09:11AM 34.7956 -77.3244 200° South 404 465 40,000  Level Washington Center
09:12AM 34.6906 -77.3678 199° South 404 465 40,000  Level Washington Center
09:13AM 34.5836 -77.4083 197° South 404 465 40,000  Level Washington Center
09:14AM 34.4786 -77.4514 199° South 404 465 40,000  Level Washington Center
09:15AM 34.3681 -77.4614 184° South 404 465 40,000  Level Washington Center
09:17AM 34.1406 -77.4664 181° South 410 472 40,000  Level Washington Center
09:18AM 34.0446 -77.5248 207° Southwest  Level FlightAware Approximate
09:19AM 33.8494 -77.4739 198° South 404 465 40,000  Level Jacksonville Center
09:20AM 33.7225 -77.4819 183° South 412 474 40,000  Level Jacksonville Center
09:21AM 33.6078 -77.4839 181° South 417 480 40,000  Level Jacksonville Center
09:23AM 33.4851 -77.5806 201° Southwest  Level Estimated
09:23AM 33.3869 -77.5372 201° Southwest 417 480 40,000  Level Jacksonville Center
09:25AM 33.3464 -77.8767 198° South  Level FlightAware Approximate
09:25AM 33.2532 -77.6096 204° Southwest  Level FlightAware Approximate
09:25AM 33.1806 -77.6439 204° Southwest 405 466 40,000  Level Jacksonville Center
09:26AM 33.0783 -77.6944 203° Southwest 405 466 40,000  Level Jacksonville Center
09:27AM 32.9781 -77.7447 203° Southwest 405 466 40,000  Level Jacksonville Center
09:29AM 32.8445 -77.8177 205° Southwest  Level FlightAware Approximate
09:30AM 32.6753 -77.8953 205° Southwest 400 460 40,000  Level Jacksonville Center
09:32AM 32.4706 -77.9978 203° Southwest 400 460 40,000  Level Jacksonville Center
09:33AM 32.3681 -78.0475 202° Southwest 400 460 40,000  Level Jacksonville Center
09:34AM 32.2636 -78.0972 202° Southwest 405 466 40,000  Level Jacksonville Center
09:35AM 32.1592 -78.1492 203° Southwest 411 473 40,000  Level Jacksonville Center
09:37AM 32.0166 -78.1904 194° South  Level FlightAware Approximate
09:37AM 31.9483 -78.2606 194° South 411 473 40,000  Level Jacksonville Center
09:38AM 31.8478 -78.3072 202° Southwest 411 473 40,000  Level Jacksonville Center
09:39AM 31.7450 -78.3536 201° Southwest 406 467 40,000  Level Jacksonville Center
09:40AM 31.6403 -78.4053 203° Southwest 411 473 40,000  Level Jacksonville Center
09:42AM 31.5023 -78.4673 201° Southwest  Level FlightAware Approximate
09:42AM 31.4331 -78.5028 201° Southwest 406 467 40,000  Level Jacksonville Center
09:43AM 31.3344 -78.5489 202° Southwest 406 467 40,000  Level Jacksonville Center
09:45AM 31.1961 -78.6098 201° Southwest  Level FlightAware Approximate
09:45AM 31.1247 -78.6483 201° Southwest 401 461 40,000  Level Jacksonville Center
09:47AM 30.9861 -78.7080 200° South  Level FlightAware Approximate
09:49AM 30.7175 -78.8356 202° Southwest 400 460 40,000  Level Jacksonville Center
09:50AM 30.6167 -78.8833 202° Southwest 404 465 40,000  Level Jacksonville Center
09:51AM 30.5114 -78.9281 200° South 377 434 40,000  Level Miami Center
09:52AM 30.4128 -78.9744 202° Southwest 377 434 40,000  Level Miami Center
09:53AM 30.3097 -79.0228 202° Southwest 390 449 40,000  Level Miami Center
09:54AM 30.2755 -79.0110 200° South  Level FlightAware Approximate
09:54AM 30.2028 -79.0686 200° South 397 457 40,000  Level Miami Center
09:55AM 30.1740 -79.0544 202° Southwest  Level FlightAware Approximate
09:55AM 30.1019 -79.1119 200° South 392 451 40,000  Level Miami Center
09:56AM 30.0033 -79.1578 202° Southwest 397 457 40,000  Level Miami Center
09:57AM 29.8961 -79.2083 202° Southwest 398 458 40,000  Level Miami Center
09:58AM 29.7953 -79.2539 201° Southwest 398 458 40,000  Level Miami Center
09:59AM 29.6944 -79.2994 201° Southwest 398 458 40,000  Level Miami Center
10:00AM 29.5872 -79.3469 201° Southwest 404 465 40,000  Level Miami Center
10:01AM 29.4864 -79.3947 202° Southwest 399 459 40,000 -1,080 Level Miami Center
10:02AM 29.3811 -79.4400 201° Southwest 399 459 37,900 -2,340 Descending Miami Center
10:04AM 29.2547 -79.4894 204° Southwest  Level FlightAware Approximate
10:04AM 29.1794 -79.5303 204° Southwest 400 460 33,100  Level Miami Center
10:05AM 29.0906 -79.5947 212° Southwest 365 420 30,800 -2,160 Descending Miami Center
10:06AM 29.0572 -79.6958 249° West 338 389 28,800 -2,040 Descending Miami Center
10:07AM 29.0258 -79.7994 251° West 343 395 26,800 -2,040 Descending Miami Center
10:09AM 28.9656 -79.9900 250° West 327 376 22,700 -2,040 Descending Miami Center
10:10AM 28.9361 -80.0889 251° West 327 376 20,800 -1,860 Descending Miami Center
10:12AM 28.8819 -80.2650 251° West 322 371 17,200 -1,680 Descending Miami Center
10:14AM 28.8333 -80.4667 255° West 285 328 14,000 -1,020 Descending Orlando TRACON
10:15AM 28.8167 -80.5667 259° West 287 330 14,000 -240 Level Orlando TRACON
10:16AM 28.8000 -80.6500 257° West 292 336 13,600 -720 Descending Orlando TRACON
10:17AM 28.7833 -80.7333 257° West 273 314 12,600 -900 Descending Orlando TRACON
10:18AM 28.7833 -80.8167 270° West 279 321 11,900 -840 Descending Orlando TRACON
10:19AM 28.8000 -80.9000 283° West 274 315 11,100 -840 Descending Orlando TRACON
10:21AM 28.7409 -81.0305 261° West  Level FlightAware Approximate
10:21AM 28.7500 -81.0667 261° West 254 292 9,400  Level Orlando TRACON
10:22AM 28.7000 -81.1333 229° Southwest 262 302 9,000 -180 Descending Orlando TRACON
10:24AM 28.5667 -81.1833 198° South 263 303 9,000 -240 Level Orlando TRACON
10:25AM 28.4833 -81.1833 180° South 276 318 8,400 -1,140 Descending Orlando TRACON
10:27AM 28.3698 -81.1833 180° South  Level FlightAware Approximate
10:27AM 28.3500 -81.1833 180° South 243 280 5,800  Level Orlando TRACON
10:29AM 28.2256 -81.1833 180° South  Level FlightAware Approximate
10:29AM 28.3000 -81.2333 180° South 181 208 2,800  Level Orlando TRACON
10:31AM 28.3333 -81.2833 307° West 173 199 1,600 -960 Descending Orlando TRACON
10:32AM 28.3833 -81.3000 344° North 137 158 700 -840 Descending Orlando TRACON